Los Lunas ASC Data

Date Time Air Temperature Relative Humidity Wind Speed Wind Dir. Rain Solar Radiation Soil Temperature
2m 2m 3m 3m 10cm
US/Mountain F % MPH deg in MJ/m^2 F
max min avg max min avg max avg avg max min avg
2019-12-14 01:00:00 36.4 31.9 34.3 85.1 72.1 77.8 9.4 1.7 221.3 0.00 0.0000000 40.4 39.8 40.1
2019-12-14 02:00:00 33.6 30.5 31.5 88.3 80.3 84.9 3.0 0.9 225.1 0.00 0.0000041 39.8 39.2 39.5
2019-12-14 03:00:00 30.8 28.6 29.6 90.0 85.9 88.1 3.3 0.8 244.9 0.00 0.0000000 39.2 38.7 38.9
2019-12-14 04:00:00 29.0 27.8 28.5 92.6 87.7 90.6 3.5 0.6 7.2 0.00 0.0000000 38.7 38.2 38.4
2019-12-14 05:00:00 29.6 28.1 28.8 92.9 89.3 91.4 3.3 0.9 13.0 0.00 0.0000000 38.2 37.8 38.0
2019-12-14 06:00:00 28.8 27.4 28.2 92.8 90.3 91.6 2.8 0.5 284.0 0.00 0.0000000 37.8 37.5 37.7
2019-12-14 07:00:00 27.8 27.0 27.4 92.9 91.3 92.1 2.6 0.5 257.8 0.00 0.0014107 37.5 37.2 37.4
2019-12-14 08:00:00 31.6 27.2 28.8 93.9 86.8 91.6 5.8 1.6 236.4 0.00 0.0650341 37.2 37.0 37.1
2019-12-14 09:00:00 41.2 31.5 35.6 86.8 66.5 76.5 3.8 0.6 32.5 0.00 0.6731732 37.0 36.8 36.9
2019-12-14 10:00:00 55.7 41.0 48.4 70.6 44.7 57.7 7.6 1.6 164.4 0.00 1.1224780 37.0 36.7 36.8
2019-12-14 11:00:00 59.9 53.8 57.0 48.8 39.8 43.8 12.8 4.7 253.7 0.00 1.2833640 38.9 37.0 37.9
2019-12-14 12:00:00 61.3 59.4 60.3 41.3 37.6 39.5 13.5 5.4 253.7 0.00 1.5021280 41.2 38.9 40.1
2019-12-14 13:00:00 62.8 59.4 60.7 40.9 35.5 38.5 11.7 2.3 243.8 0.00 1.1359820 43.3 41.2 42.3
2019-12-14 14:00:00 65.4 63.0 64.1 36.0 29.1 32.4 16.5 5.9 263.1 0.00 1.2979810 45.2 43.3 44.3
2019-12-14 15:00:00 65.8 64.3 64.8 30.8 26.1 28.9 16.5 8.1 273.0 0.00 0.8911011 46.3 45.2 45.8
2019-12-14 16:00:00 66.2 63.4 64.6 30.2 27.8 28.8 14.6 7.7 287.0 0.00 0.8104603 46.9 46.3 46.6
2019-12-14 17:00:00 64.8 59.6 62.5 34.8 28.3 30.9 12.8 6.2 275.3 0.00 0.2578766 47.2 46.9 47.0
2019-12-14 18:00:00 59.8 54.2 56.9 42.7 34.7 38.1 5.8 2.7 239.5 0.00 0.0017688 47.2 46.7 47.0
2019-12-14 19:00:00 54.2 45.9 50.4 58.3 42.8 49.5 3.8 2.0 216.5 0.00 0.0000041 46.7 45.9 46.3
2019-12-14 20:00:00 45.8 40.4 42.2 68.4 57.3 63.8 2.6 0.3 252.0 0.00 0.0003285 45.9 45.0 45.4
2019-12-14 21:00:00 40.6 38.6 39.7 75.3 66.4 71.0 3.0 0.7 214.8 0.00 0.0000832 45.0 44.0 44.5
2019-12-14 22:00:00 41.0 38.4 39.9 78.1 70.1 73.4 3.1 0.8 241.1 0.00 0.0000000 44.0 43.2 43.6
2019-12-14 23:00:00 39.8 38.2 39.0 78.7 72.9 76.2 4.4 1.7 214.5 0.00 0.0000041 43.2 42.5 42.9
2019-12-15 00:00:00 41.4 36.5 39.3 80.2 69.8 75.2 3.7 1.2 243.6 0.00 0.0000203 42.5 41.8 42.2

Data is courtesy of the NM Climate Center. DO NOT USE IN LEGAL PROCEEDINGS.